This is the latest recevied weather packets stored in our database for station/object VE7OTD. If no packets are shown the sender has not sent any weather packets the latest 10 day(s).
| Time | Temp. | Humidity | Pressure | Rain* | Wind** | Luminosity | Snow |
|---|---|---|---|---|---|---|---|
| 1777883004 | 15.56° C | 58% | 1009.3 hPa | 0 mm | - | - | - |
| 1777881164 | 17.22° C | 54% | 1009.4 hPa | 0 mm | - | - | - |
| 1777879349 | 17.22° C | 53% | 1009.3 hPa | 0 mm | - | - | - |
| 1777877535 | 16.11° C | 60% | 1009.3 hPa | 0 mm | - | - | - |
| 1777875695 | 15.56° C | 63% | 1009.3 hPa | 0 mm | - | - | - |
| 1777873880 | 16.67° C | 62% | 1009.4 hPa | 0 mm | - | - | - |
| 1777872050 | 17.78° C | 58% | 1009.3 hPa | 0 mm | - | - | - |
| 1777870235 | 26.11° C | 30% | 1009.4 hPa | - | - | - | - |
| 1777868420 | 26.11° C | 30% | 1009.3 hPa | - | - | - | - |
| 1777866621 | 26.11° C | 30% | 1009.1 hPa | - | - | - | - |
| 1777864806 | 26.11° C | 30% | 1009.3 hPa | 0 mm | - | - | - |
| 1777843009 | 27.22° C | 32% | 1012.8 hPa | 0 mm | - | - | - |
| 1777841194 | 25.56° C | 40% | 1013.1 hPa | 0 mm | - | - | - |
| 1777839361 | 25.56° C | 42% | 1013.5 hPa | 0 mm | - | - | - |
| 1777830260 | 22.22° C | 47% | 1014.7 hPa | 0 mm | - | - | - |
| 1777828446 | 21.11° C | 49% | 1014.9 hPa | 0 mm | - | - | - |
| 1777824816 | 18.33° C | 50% | 1015.3 hPa | 0 mm | - | - | - |
| 1777806723 | 11.67° C | 69% | 1015.5 hPa | 0 mm | - | - | - |
| 1777804875 | 11.11° C | 72% | 1015.6 hPa | 0 mm | - | - | - |
| 1777803065 | 11.67° C | 70% | 1015.6 hPa | 0 mm | - | - | - |
| 1777801257 | 11.67° C | 70% | 1015.6 hPa | 0 mm | - | - | - |
| 1777799442 | 12.22° C | 67% | 1015.8 hPa | 0 mm | - | - | - |
| 1777797608 | 12.78° C | 67% | 1015.5 hPa | 0 mm | - | - | - |
| 1777795768 | 13.33° C | 65% | 1015.4 hPa | 0 mm | - | - | - |
| 1777793954 | 13.89° C | 63% | 1015.5 hPa | 0 mm | - | - | - |
* Rain latest hour (hover to see other rain measurements)
** Current wind speed in m/s (hover to see current wind gust speed)